Time;durP1;ratioP1;P1;durP2;ratioP2;P2;SDS_P1;SDS_P2;PMS_P1;PMS_P2;Temp;Humidity;BMP_temperature;BMP_pressure;BME280_temperature;BME280_humidity;BME280_pressure;Samples;Min_cycle;Max_cycle;Signal;HPM_P1;HPM_P2
2022/09/26 00:01:58;;;;;;;6.22;5.15;;;;;;;13.37;57.19;94616.56;4166984;28;20056;-63
2022/09/26 00:04:03;;;;;;;7.35;5.57;;;;;;;13.31;57.45;94624.16;4163390;28;20693;-58
2022/09/26 00:06:06;;;;;;;11.80;6.15;;;;;;;13.47;57.53;94607.41;4163400;28;20054;-56
2022/09/26 00:08:08;;;;;;;;;;;;;;;13.65;57.31;94608.88;4165592;28;20051;-59
2022/09/26 00:10:10;;;;;;;10.05;5.95;;;;;;;13.77;57.02;94612.72;4162177;28;19974;-58
2022/09/26 00:12:11;;;;;;;11.88;9.10;;;;;;;13.92;56.44;94604.81;4162500;28;20453;-58
2022/09/26 00:14:17;;;;;;;15.68;10.18;;;;;;;14.01;56.06;94609.00;4161337;28;20507;-58
2022/09/26 00:16:19;;;;;;;13.52;9.55;;;;;;;14.13;55.40;94604.91;4163729;28;20153;-58
2022/09/26 00:18:22;;;;;;;10.75;8.32;;;;;;;14.19;55.28;94597.25;4169411;28;20080;-58
2022/09/26 00:20:23;;;;;;;12.73;8.15;;;;;;;14.25;55.30;94596.53;4162379;28;20248;-59
2022/09/26 00:22:25;;;;;;;10.75;8.35;;;;;;;14.29;54.85;94597.78;4163167;28;20331;-56
2022/09/26 00:24:27;;;;;;;14.00;8.32;;;;;;;14.34;55.10;94604.13;4177553;28;20417;-59
2022/09/26 00:26:30;;;;;;;9.75;7.82;;;;;;;14.37;54.97;94596.84;4177194;28;20131;-58
2022/09/26 00:28:32;;;;;;;16.23;9.07;;;;;;;14.36;55.15;94597.88;4166161;28;20045;-59
2022/09/26 00:30:35;;;;;;;12.35;9.00;;;;;;;14.33;54.98;94586.69;4169499;28;20461;-58
2022/09/26 00:32:37;;;;;;;18.33;9.57;;;;;;;14.21;54.94;94597.91;4172317;28;20041;-59
2022/09/26 00:34:39;;;;;;;16.80;9.43;;;;;;;14.13;55.38;94594.38;4178795;28;20044;-59
2022/09/26 00:36:41;;;;;;;17.48;9.57;;;;;;;14.14;55.34;94587.28;4178355;28;20144;-58
2022/09/26 00:38:43;;;;;;;13.75;9.10;;;;;;;14.17;55.49;94581.63;4172980;28;20046;-57
2022/09/26 00:40:46;;;;;;;11.85;8.98;;;;;;;14.21;55.74;94585.53;4171026;28;20052;-58
2022/09/26 00:42:47;;;;;;;14.40;8.90;;;;;;;14.26;55.70;94583.19;4177616;28;20075;-58
2022/09/26 00:44:53;;;;;;;15.80;9.68;;;;;;;14.32;55.19;94582.41;4174240;28;20132;-58
2022/09/26 00:46:55;;;;;;;12.85;8.63;;;;;;;14.41;55.27;94574.41;4166840;28;20049;-59
2022/09/26 00:49:41;;;;;;;14.25;8.88;;;;;;;14.44;55.38;94581.97;4176798;28;20076;-57
2022/09/26 00:51:52;;;;;;;18.10;8.73;;;;;;;14.39;55.25;94581.69;4165072;28;20565;-57
2022/09/26 00:53:54;;;;;;;15.73;9.02;;;;;;;14.37;55.34;94586.31;4172351;28;20145;-57
2022/09/26 00:56:05;;;;;;;13.60;9.33;;;;;;;14.40;55.09;94583.31;4167611;28;20047;-58
2022/09/26 00:58:20;;;;;;;16.08;8.70;;;;;;;14.41;55.67;94577.03;4171880;28;20297;-58
2022/09/26 01:00:22;;;;;;;13.00;8.65;;;;;;;14.41;55.74;94571.75;4167483;28;20234;-54
2022/09/26 01:02:26;;;;;;;13.93;8.40;;;;;;;14.42;55.42;94573.41;4166476;28;20502;-56
2022/09/26 01:04:28;;;;;;;;;;;;;;;14.45;55.29;94573.03;4170701;28;20049;-59
2022/09/26 01:06:30;;;;;;;9.68;7.30;;;;;;;14.46;55.67;94574.69;4175793;28;19963;-56
2022/09/26 01:08:37;;;;;;;11.63;7.07;;;;;;;14.45;55.73;94579.13;4174811;28;20631;-57
2022/09/26 01:10:39;;;;;;;10.82;7.00;;;;;;;14.45;55.62;94580.94;4165413;28;20131;-59
2022/09/26 01:12:42;;;;;;;9.30;6.60;;;;;;;14.41;55.59;94584.94;4176927;28;20144;-59
2022/09/26 01:14:46;;;;;;;8.38;6.00;;;;;;;14.32;55.36;94574.50;4170211;28;20248;-55
2022/09/26 01:16:50;;;;;;;10.85;6.85;;;;;;;14.23;55.97;94575.63;4169980;28;20045;-59
2022/09/26 01:18:51;;;;;;;9.77;6.55;;;;;;;14.22;56.16;94581.91;4162927;28;20107;-58
2022/09/26 01:20:56;;;;;;;12.82;7.28;;;;;;;14.25;55.98;94578.09;4161838;28;20133;-58
2022/09/26 01:23:13;;;;;;;13.40;7.45;;;;;;;13.95;56.55;94572.84;4161635;28;20524;-58
2022/09/26 01:25:48;;;;;;;12.88;8.30;;;;;;;13.61;57.97;94562.84;4161259;28;20083;-57
2022/09/26 01:27:50;;;;;;;10.23;7.57;;;;;;;13.67;57.81;94575.31;4162169;28;20049;-58
2022/09/26 01:30:07;;;;;;;11.40;7.65;;;;;;;13.77;58.23;94564.50;4165139;28;20041;-57
2022/09/26 01:34:52;;;;;;;10.82;8.32;;;;;;;13.81;58.06;94568.38;4175836;28;20586;-58
2022/09/26 01:36:56;;;;;;;11.63;7.45;;;;;;;13.93;57.67;94578.28;4168714;28;20053;-57
2022/09/26 01:39:13;;;;;;;11.15;7.72;;;;;;;14.06;57.22;94579.47;4168739;28;20056;-59
2022/09/26 01:41:28;;;;;;;13.75;8.15;;;;;;;14.16;56.76;94580.00;4166150;28;20127;-58
2022/09/26 01:43:39;;;;;;;14.05;8.60;;;;;;;14.13;57.02;94577.72;4176803;28;20053;-58
2022/09/26 01:46:02;;;;;;;13.25;9.48;;;;;;;14.07;56.88;94576.66;4168908;28;20135;-58
2022/09/26 01:48:08;;;;;;;19.63;8.93;;;;;;;14.11;57.10;94569.19;4162425;28;20125;-57
2022/09/26 01:50:31;;;;;;;11.27;7.38;;;;;;;14.18;57.10;94558.75;4150436;28;20115;-58
2022/09/26 01:52:39;;;;;;;13.20;7.90;;;;;;;14.24;56.79;94558.81;4162584;28;20508;-58
2022/09/26 01:55:08;;;;;;;13.77;8.45;;;;;;;14.34;56.64;94563.78;4171198;28;20054;-59
2022/09/26 01:57:14;;;;;;;13.40;8.30;;;;;;;14.41;56.53;94555.97;4173080;28;20124;-57
2022/09/26 01:59:22;;;;;;;12.60;7.82;;;;;;;14.43;56.71;94551.31;4173058;28;20037;-58
2022/09/26 02:01:26;;;;;;;10.93;8.38;;;;;;;14.45;56.19;94557.22;4165768;28;20290;-58
2022/09/26 02:03:33;;;;;;;9.73;7.28;;;;;;;14.49;56.54;94550.56;4163711;28;20119;-58
2022/09/26 02:05:40;;;;;;;11.50;8.05;;;;;;;14.44;56.40;94548.50;4175910;28;20052;-59
2022/09/26 02:07:55;;;;;;;11.68;8.10;;;;;;;14.41;56.60;94542.78;4164849;28;20137;-58
2022/09/26 02:10:04;;;;;;;11.73;7.60;;;;;;;14.43;56.56;94548.69;4172853;28;20529;-56
2022/09/26 02:12:08;;;;;;;9.60;7.47;;;;;;;14.43;56.76;94548.69;4157652;28;20571;-60
2022/09/26 02:14:16;;;;;;;11.10;7.88;;;;;;;14.42;56.03;94549.69;4160139;28;20061;-58
2022/09/26 02:16:23;;;;;;;14.48;7.55;;;;;;;14.41;56.08;94545.41;4168703;28;20095;-59
2022/09/26 02:18:34;;;;;;;10.80;7.55;;;;;;;14.43;55.70;94543.41;4167807;28;20061;-59
2022/09/26 02:20:37;;;;;;;10.07;7.78;;;;;;;14.38;55.88;94551.06;4186609;28;20056;-63
2022/09/26 02:22:38;;;;;;;13.20;7.75;;;;;;;14.29;56.27;94542.47;4182096;28;20045;-64
2022/09/26 02:24:40;;;;;;;13.00;7.47;;;;;;;14.27;56.53;94540.00;4166390;28;20053;-65
2022/09/26 02:26:42;;;;;;;12.43;7.32;;;;;;;14.22;56.46;94528.38;4171520;28;20081;-64
2022/09/26 02:28:44;;;;;;;14.18;8.00;;;;;;;14.14;56.83;94524.84;4174736;28;20058;-64
2022/09/26 02:30:48;;;;;;;11.48;7.25;;;;;;;14.11;57.11;94527.03;4164099;28;20517;-65
2022/09/26 02:32:50;;;;;;;;;;;;;;;14.13;56.99;94525.88;4174332;28;20053;-64
2022/09/26 02:34:51;;;;;;;10.18;7.63;;;;;;;14.18;57.50;94524.50;4178892;28;19921;-64
2022/09/26 02:36:55;;;;;;;12.25;8.10;;;;;;;14.23;56.89;94509.75;4178944;28;20045;-65
2022/09/26 02:38:57;;;;;;;12.50;7.25;;;;;;;14.31;56.91;94508.84;4178209;28;20048;-62
2022/09/26 02:41:17;;;;;;;15.15;7.78;;;;;;;14.37;57.08;94513.38;4175598;28;20354;-64
2022/09/26 02:43:40;;;;;;;10.38;7.07;;;;;;;14.43;56.68;94519.69;4171753;28;20501;-64
2022/09/26 02:45:46;;;;;;;11.55;7.45;;;;;;;14.48;56.65;94517.34;4162528;28;20514;-65
2022/09/26 02:47:48;;;;;;;15.32;7.40;;;;;;;14.52;56.65;94510.69;4167904;28;20049;-65
2022/09/26 02:50:09;;;;;;;12.60;8.02;;;;;;;14.52;56.30;94510.69;4179155;28;20147;-65
2022/09/26 02:52:57;;;;;;;18.00;8.23;;;;;;;14.27;56.89;94508.38;4164065;28;20085;-64
2022/09/26 02:55:16;;;;;;;11.68;7.97;;;;;;;14.12;57.11;94512.88;4166841;28;20076;-65
2022/09/26 02:58:08;;;;;;;13.10;8.23;;;;;;;14.01;57.34;94519.44;4164966;28;20132;-63
2022/09/26 03:00:18;;;;;;;12.70;8.02;;;;;;;13.80;58.16;94501.75;4161546;28;20103;-64
2022/09/26 03:02:32;;;;;;;16.52;8.13;;;;;;;13.80;58.30;94501.75;4147316;28;20069;-62
2022/09/26 03:04:48;;;;;;;11.02;8.38;;;;;;;13.85;58.31;94499.41;4166739;28;20596;-63
2022/09/26 03:06:54;;;;;;;13.30;7.97;;;;;;;13.95;57.97;94503.56;4161206;28;20144;-64
2022/09/26 03:08:56;;;;;;;11.77;8.23;;;;;;;14.01;58.12;94495.75;4159064;28;20053;-64
2022/09/26 03:11:01;;;;;;;11.68;7.82;;;;;;;14.03;57.73;94496.38;4176979;28;20131;-65
2022/09/26 03:13:10;;;;;;;15.20;8.50;;;;;;;14.07;57.86;94495.00;4160269;28;20136;-65
2022/09/26 03:15:13;;;;;;;14.23;8.75;;;;;;;14.16;57.75;94500.16;4175366;28;20156;-64
2022/09/26 03:17:17;;;;;;;10.43;7.45;;;;;;;14.23;57.77;94496.59;4175998;28;20115;-65
2022/09/26 03:19:21;;;;;;;13.77;7.53;;;;;;;14.29;57.49;94501.13;4175575;28;20565;-64
2022/09/26 03:21:24;;;;;;;11.00;8.48;;;;;;;14.36;57.45;94500.38;4158468;28;20045;-64
2022/09/26 03:23:26;;;;;;;13.68;8.30;;;;;;;14.42;56.84;94489.09;4174883;28;20053;-66
2022/09/26 03:25:28;;;;;;;12.70;7.93;;;;;;;14.45;57.15;94492.13;4176250;28;20516;-65
2022/09/26 03:27:30;;;;;;;13.68;8.77;;;;;;;14.48;57.32;94498.88;4161156;28;20551;-63
2022/09/26 03:29:32;;;;;;;11.63;7.53;;;;;;;14.45;57.67;94484.22;4175521;28;20052;-64
2022/09/26 03:31:34;;;;;;;12.68;8.00;;;;;;;14.40;57.83;94484.00;4175860;28;20049;-65
2022/09/26 03:33:36;;;;;;;13.32;7.65;;;;;;;14.37;57.62;94479.09;4175312;28;20057;-65
2022/09/26 03:35:37;;;;;;;11.98;7.30;;;;;;;14.33;57.94;94478.66;4163828;28;20128;-63
2022/09/26 03:37:39;;;;;;;11.75;6.90;;;;;;;14.17;58.02;94481.50;4174374;28;20053;-64
2022/09/26 03:39:41;;;;;;;12.57;7.10;;;;;;;14.19;58.47;94476.88;4164850;28;20053;-63
2022/09/26 03:41:42;;;;;;;10.23;6.50;;;;;;;14.26;58.21;94472.50;4163254;28;20083;-64
2022/09/26 03:43:44;;;;;;;9.00;6.35;;;;;;;14.25;57.67;94470.88;4163106;28;20136;-63
2022/09/26 03:45:46;;;;;;;9.80;6.93;;;;;;;14.24;57.57;94479.78;4162830;28;20501;-66
2022/09/26 03:47:54;;;;;;;10.38;6.25;;;;;;;13.86;58.60;94479.16;4164542;28;20085;-63
2022/09/26 03:49:56;;;;;;;8.50;6.45;;;;;;;13.82;58.95;94483.97;4168285;28;20044;-64
2022/09/26 03:51:57;;;;;;;9.43;6.80;;;;;;;13.81;58.60;94484.13;4172968;28;20133;-64
2022/09/26 03:53:59;;;;;;;12.75;6.72;;;;;;;13.88;58.87;94488.50;4167158;28;20554;-63
2022/09/26 03:56:05;;;;;;;13.65;6.25;;;;;;;13.97;58.16;94486.56;4165561;28;20076;-65
2022/09/26 03:58:07;;;;;;;11.65;7.20;;;;;;;14.06;58.45;94482.00;4175980;28;20072;-63
2022/09/26 04:00:09;;;;;;;13.38;6.55;;;;;;;14.19;58.27;94484.78;4164933;28;20052;-64
2022/09/26 04:02:11;;;;;;;11.75;7.03;;;;;;;14.28;58.01;94483.69;4163125;28;20088;-65
2022/09/26 04:04:15;;;;;;;7.13;6.22;;;;;;;14.31;57.80;94477.22;4171925;28;20127;-65
2022/09/26 04:06:18;;;;;;;;;;;;;;;14.43;57.18;94472.25;4165087;28;20049;-66
2022/09/26 04:08:20;;;;;;;9.20;6.82;;;;;;;14.46;57.16;94477.16;4173643;28;19921;-65
2022/09/26 04:10:23;;;;;;;13.38;6.78;;;;;;;14.52;56.90;94484.31;4173439;28;20135;-65
2022/09/26 04:12:24;;;;;;;7.82;6.50;;;;;;;14.56;56.79;94474.22;4165976;28;20136;-67
2022/09/26 04:14:26;;;;;;;12.10;6.90;;;;;;;14.58;56.79;94480.94;4170850;28;22037;-67
2022/09/26 04:16:28;;;;;;;12.25;6.80;;;;;;;14.58;56.69;94483.56;4169121;28;20592;-64
2022/09/26 04:18:31;;;;;;;9.20;6.40;;;;;;;14.57;56.60;94481.97;4175264;28;20057;-67
2022/09/26 04:20:32;;;;;;;15.13;7.15;;;;;;;14.59;56.86;94479.94;4173647;28;20060;-65
2022/09/26 04:22:34;;;;;;;12.88;7.30;;;;;;;14.61;56.78;94488.50;4172712;28;20140;-67
2022/09/26 04:24:36;;;;;;;13.52;7.18;;;;;;;14.66;56.77;94475.53;4174323;28;20450;-65
2022/09/26 04:26:40;;;;;;;11.23;7.75;;;;;;;14.69;56.72;94479.63;4174091;28;20048;-66
2022/09/26 04:28:41;;;;;;;11.82;7.85;;;;;;;14.71;56.81;94474.97;4174531;28;20048;-68
2022/09/26 04:30:43;;;;;;;12.70;7.57;;;;;;;14.73;56.81;94486.97;4166693;28;20092;-67
2022/09/26 04:32:45;;;;;;;11.95;7.95;;;;;;;14.73;56.75;94489.63;4168388;28;20581;-66
2022/09/26 04:34:47;;;;;;;11.70;7.70;;;;;;;14.72;56.93;94498.53;4172195;28;20458;-63
2022/09/26 04:36:50;;;;;;;12.18;8.95;;;;;;;14.55;57.02;94499.78;4176266;28;20083;-64
2022/09/26 04:38:51;;;;;;;21.85;9.18;;;;;;;14.45;57.53;94486.06;4174166;28;20585;-66
2022/09/26 04:40:53;;;;;;;14.35;8.68;;;;;;;14.41;57.42;94490.91;4168808;28;20137;-66
2022/09/26 04:42:55;;;;;;;17.27;9.02;;;;;;;14.42;57.36;94489.88;4168940;28;20041;-66
2022/09/26 04:44:57;;;;;;;15.00;8.70;;;;;;;14.48;57.45;94490.97;4169038;28;20080;-66
2022/09/26 04:46:59;;;;;;;16.02;9.07;;;;;;;14.59;57.09;94495.75;4167969;28;20136;-67
2022/09/26 04:49:01;;;;;;;18.13;9.43;;;;;;;14.64;56.96;94476.75;4168414;28;20081;-68
2022/09/26 04:51:04;;;;;;;12.07;8.30;;;;;;;14.69;56.54;94472.53;4163989;28;20053;-69
2022/09/26 04:53:06;;;;;;;14.38;9.20;;;;;;;14.70;56.26;94482.06;4165084;28;20037;-66
2022/09/26 04:55:08;;;;;;;12.43;7.82;;;;;;;14.71;56.17;94474.97;4176069;28;20076;-68
2022/09/26 04:57:11;;;;;;;13.50;8.40;;;;;;;14.73;56.03;94472.97;4169902;28;20076;-66
2022/09/26 04:59:19;;;;;;;21.95;8.70;;;;;;;14.79;56.21;94479.31;4175295;28;20079;-65
2022/09/26 05:01:22;;;;;;;18.17;8.20;;;;;;;14.80;56.14;94473.84;4160769;28;20060;-64
2022/09/26 05:03:23;;;;;;;15.45;9.07;;;;;;;14.81;56.38;94475.47;4162853;28;20049;-62
2022/09/26 05:05:25;;;;;;;13.95;9.13;;;;;;;14.80;56.18;94473.00;4175867;28;20065;-60
2022/09/26 05:07:28;;;;;;;19.40;9.00;;;;;;;14.86;56.10;94472.25;4167278;28;20055;-61
2022/09/26 05:09:29;;;;;;;17.00;9.90;;;;;;;14.90;56.14;94470.88;4170739;28;20139;-59
2022/09/26 05:11:36;;;;;;;17.42;8.60;;;;;;;14.95;56.11;94479.84;4175509;28;20102;-60
2022/09/26 05:13:38;;;;;;;10.93;8.40;;;;;;;15.01;56.02;94467.69;4169030;28;20081;-63
2022/09/26 05:15:41;;;;;;;15.68;7.90;;;;;;;15.04;56.04;94472.59;4168138;28;20085;-61
2022/09/26 05:17:44;;;;;;;19.48;9.35;;;;;;;15.09;55.84;94470.19;4178347;28;20044;-61
2022/09/26 05:19:45;;;;;;;18.80;10.32;;;;;;;15.01;56.15;94466.88;4170971;28;20060;-59
2022/09/26 05:21:47;;;;;;;19.77;10.07;;;;;;;14.83;57.06;94456.81;4168837;28;20561;-59
2022/09/26 05:26:22;;;;;;;19.75;10.43;;;;;;;14.81;57.60;94462.28;4170185;28;20041;-59
2022/09/26 05:28:24;;;;;;;19.42;10.50;;;;;;;14.83;57.42;94454.19;4168416;28;20073;-60
2022/09/26 05:30:29;;;;;;;19.52;10.20;;;;;;;14.92;56.85;94467.03;4159988;28;20133;-66
2022/09/26 05:32:31;;;;;;;22.52;11.77;;;;;;;14.83;57.60;94462.91;4169920;28;20144;-66
2022/09/26 05:34:33;;;;;;;22.27;11.80;;;;;;;14.85;57.52;94446.91;4177620;28;20087;-67
2022/09/26 05:36:35;;;;;;;26.10;11.43;;;;;;;14.68;57.85;94441.91;4163613;28;20057;-67
2022/09/26 05:38:37;;;;;;;24.35;12.05;;;;;;;14.62;58.33;94436.56;4177604;28;20115;-67
2022/09/26 05:40:57;;;;;;;19.08;10.75;;;;;;;14.73;58.11;94436.88;4177116;28;20383;-66
2022/09/26 05:43:00;;;;;;;20.25;11.75;;;;;;;14.84;57.87;94439.97;4176186;28;20080;-65
2022/09/26 05:45:02;;;;;;;21.85;11.32;;;;;;;14.91;57.59;94444.31;4176334;28;20095;-65
2022/09/26 05:47:04;;;;;;;33.05;12.50;;;;;;;15.02;57.46;94450.88;4176328;28;20361;-59
2022/09/26 05:49:06;;;;;;;18.25;12.23;;;;;;;14.94;57.38;94451.81;4175486;28;20048;-61
2022/09/26 05:51:11;;;;;;;21.55;11.52;;;;;;;14.94;57.88;94449.19;4160739;28;20124;-59
2022/09/26 05:53:13;;;;;;;33.47;14.93;;;;;;;15.01;57.63;94457.16;4169164;28;20049;-59
2022/09/26 05:55:14;;;;;;;25.67;13.15;;;;;;;15.09;57.39;94456.19;4177397;28;20107;-61
2022/09/26 05:57:16;;;;;;;25.60;12.95;;;;;;;15.23;57.09;94454.44;4175822;28;20131;-59
2022/09/26 05:59:18;;;;;;;20.05;11.80;;;;;;;15.36;56.90;94454.56;4177246;28;20386;-59
2022/09/26 06:01:19;;;;;;;25.75;12.63;;;;;;;15.53;56.97;94457.66;4175438;28;20473;-59
2022/09/26 06:03:21;;;;;;;26.73;13.15;;;;;;;15.69;56.73;94453.91;4176979;28;20045;-59
2022/09/26 06:05:24;;;;;;;19.30;12.77;;;;;;;15.74;56.07;94456.78;4174268;28;20482;-59
2022/09/26 06:07:25;;;;;;;25.98;12.60;;;;;;;15.74;55.85;94459.44;4167301;28;20132;-58
2022/09/26 06:09:27;;;;;;;18.35;10.88;;;;;;;15.67;55.85;94454.09;4166050;28;20050;-59
2022/09/26 06:11:32;;;;;;;23.00;12.73;;;;;;;15.75;55.99;94455.78;4163676;28;20084;-60
2022/09/26 06:13:35;;;;;;;16.75;11.20;;;;;;;15.93;55.25;94456.06;4164290;28;20052;-61
2022/09/26 06:15:38;;;;;;;23.10;11.00;;;;;;;16.07;54.78;94461.41;4170402;28;20231;-61
2022/09/26 06:17:40;;;;;;;20.35;11.48;;;;;;;16.24;54.62;94467.94;4169039;28;20606;-59
2022/09/26 06:19:43;;;;;;;18.63;10.82;;;;;;;16.37;54.12;94470.63;4178783;28;20123;-61
2022/09/26 06:21:44;;;;;;;27.77;11.23;;;;;;;16.45;53.40;94458.22;4173955;28;20521;-60
2022/09/26 06:23:46;;;;;;;22.63;10.80;;;;;;;16.29;53.76;94460.22;4164739;28;20503;-59
2022/09/26 06:25:48;;;;;;;19.02;10.85;;;;;;;16.31;54.07;94460.84;4163501;28;20089;-61
2022/09/26 06:27:54;;;;;;;18.30;11.88;;;;;;;16.41;53.97;94460.44;4173373;28;20052;-60
2022/09/26 06:30:00;;;;;;;18.55;11.02;;;;;;;16.53;53.32;94460.69;4166147;28;20072;-63
2022/09/26 06:32:02;;;;;;;17.38;10.93;;;;;;;16.43;52.81;94471.63;4174580;28;20053;-59
2022/09/26 06:34:04;;;;;;;19.67;11.63;;;;;;;16.38;53.27;94463.50;4180436;28;20048;-61
2022/09/26 06:36:09;;;;;;;23.30;12.40;;;;;;;16.30;53.57;94471.59;4168590;28;20579;-59
2022/09/26 06:38:11;;;;;;;19.58;11.65;;;;;;;16.26;53.56;94455.34;4164123;28;20151;-59
2022/09/26 06:40:13;;;;;;;17.20;12.15;;;;;;;16.23;53.58;94450.44;4163308;28;20056;-62
2022/09/26 06:42:15;;;;;;;16.45;11.43;;;;;;;16.29;53.47;94449.66;4163390;28;20064;-58
2022/09/26 06:44:17;;;;;;;21.38;10.40;;;;;;;16.54;53.43;94441.13;4176186;28;20047;-61
2022/09/26 06:46:19;;;;;;;21.05;10.82;;;;;;;16.77;52.69;94430.16;4175997;28;20053;-61
2022/09/26 06:48:23;;;;;;;26.05;11.95;;;;;;;16.79;52.25;94444.81;4177430;28;20537;-69
2022/09/26 06:50:25;;;;;;;20.45;11.52;;;;;;;17.02;51.92;94448.13;4167080;28;20057;-69
2022/09/26 06:52:32;;;;;;;21.40;11.32;;;;;;;17.15;50.91;94446.25;4173436;28;20295;-66
2022/09/26 06:54:34;;;;;;;16.10;9.35;;;;;;;17.11;50.36;94452.97;4179328;28;20077;-66
2022/09/26 06:56:36;;;;;;;12.32;7.03;;;;;;;16.99;49.44;94449.31;4175757;28;20164;-65
2022/09/26 06:58:38;;;;;;;12.23;7.13;;;;;;;17.09;49.53;94451.56;4174133;28;20045;-66
2022/09/26 07:00:39;;;;;;;17.00;7.28;;;;;;;17.27;49.33;94457.06;4174783;28;20091;-66
2022/09/26 07:02:50;;;;;;;10.88;7.03;;;;;;;17.49;48.89;94454.97;4169339;28;20521;-65
2022/09/26 07:04:51;;;;;;;9.50;7.53;;;;;;;17.70;48.46;94445.09;4178370;28;20136;-67
2022/09/26 07:06:53;;;;;;;10.93;7.13;;;;;;;17.90;48.14;94447.72;4166095;28;20885;-66
2022/09/26 07:08:55;;;;;;;11.95;6.75;;;;;;;18.14;47.42;94456.78;4171557;28;20056;-67
2022/09/26 07:11:05;;;;;;;12.10;7.22;;;;;;;18.38;47.02;94453.38;4165679;28;20053;-67
2022/09/26 07:13:28;;;;;;;12.98;7.30;;;;;;;18.47;46.23;94459.25;4164843;28;20057;-66
2022/09/26 07:15:32;;;;;;;14.20;8.25;;;;;;;18.31;46.87;94465.06;4162515;28;20152;-64
2022/09/26 07:17:33;;;;;;;16.05;9.00;;;;;;;17.94;47.38;94462.16;4163813;28;20111;-67
2022/09/26 07:19:35;;;;;;;14.80;8.73;;;;;;;17.44;48.21;94460.03;4163576;28;20387;-67
2022/09/26 07:21:37;;;;;;;12.98;7.47;;;;;;;17.49;48.07;94459.44;4165304;28;20045;-67
2022/09/26 07:23:39;;;;;;;13.73;6.57;;;;;;;17.55;47.03;94455.94;4165199;28;20053;-67
2022/09/26 07:25:45;;;;;;;10.18;7.00;;;;;;;17.61;47.53;94461.22;4164744;28;20077;-70
2022/09/26 07:27:51;;;;;;;8.77;4.47;;;;;;;17.58;45.92;94452.91;4165360;28;20140;-67
2022/09/26 07:29:53;;;;;;;8.38;4.95;;;;;;;17.63;46.20;94457.56;4164677;28;20160;-66
2022/09/26 07:31:55;;;;;;;8.90;4.97;;;;;;;17.80;45.89;94464.84;4174274;28;20450;-67
2022/09/26 07:33:57;;;;;;;10.57;6.65;;;;;;;17.91;46.17;94462.59;4168356;28;20049;-68
2022/09/26 07:35:58;;;;;;;8.40;5.63;;;;;;;17.96;46.23;94463.59;4176533;28;20502;-66
2022/09/26 07:38:06;;;;;;;12.98;7.97;;;;;;;17.82;47.08;94464.66;4168061;28;20445;-67
2022/09/26 07:40:08;;;;;;;11.70;7.10;;;;;;;17.72;47.33;94459.75;4168138;28;20077;-69
2022/09/26 07:42:13;;;;;;;13.65;6.95;;;;;;;17.68;47.35;94463.88;4168178;28;20111;-68
2022/09/26 07:44:14;;;;;;;10.52;6.95;;;;;;;17.72;47.03;94467.72;4178368;28;20135;-67
2022/09/26 07:51:18;;;;;;;9.38;4.88;;;;;;;17.10;47.64;94437.28;4173038;28;20268;-66
2022/09/26 07:53:20;;;;;;;10.57;5.00;;;;;;;17.27;47.54;94440.31;4170880;28;20088;-69
2022/09/26 07:55:25;;;;;;;9.05;5.70;;;;;;;17.23;47.46;94449.69;4169396;28;20132;-66
2022/09/26 07:57:28;;;;;;;9.13;5.00;;;;;;;17.45;47.17;94445.00;4171651;28;20496;-66
2022/09/26 07:59:34;;;;;;;12.48;5.32;;;;;;;17.46;46.85;94430.72;4178559;28;20049;-67
2022/09/26 08:01:36;;;;;;;9.32;5.30;;;;;;;17.57;46.70;94422.97;4168533;28;20045;-66
2022/09/26 08:03:44;;;;;;;11.88;5.10;;;;;;;17.89;46.23;94414.28;4168161;28;20136;-65
2022/09/26 08:05:45;;;;;;;10.13;5.00;;;;;;;18.21;46.16;94412.50;4154878;28;20109;-67
2022/09/26 08:07:48;;;;;;;10.30;5.03;;;;;;;18.56;45.43;94417.34;4169584;28;20049;-67
2022/09/26 08:09:52;;;;;;;7.30;4.93;;;;;;;18.69;44.30;94411.97;4168882;28;20143;-67
2022/09/26 08:11:55;;;;;;;8.57;4.60;;;;;;;18.62;44.40;94396.09;4176601;28;20128;-69
2022/09/26 08:13:56;;;;;;;7.07;4.35;;;;;;;18.76;44.16;94394.16;4178853;28;20124;-68
2022/09/26 08:16:03;;;;;;;8.95;5.05;;;;;;;18.66;44.20;94401.78;4177336;28;20060;-66
2022/09/26 08:18:05;;;;;;;6.75;5.05;;;;;;;18.81;44.62;94404.94;4177129;28;20080;-67
2022/09/26 08:20:08;;;;;;;;;;;;;;;19.04;43.97;94406.19;4179621;28;20045;-66
2022/09/26 08:22:11;;;;;;;7.53;5.00;;;;;;;19.28;43.41;94404.53;4170313;28;19925;-68
2022/09/26 08:24:12;;;;;;;9.20;5.70;;;;;;;19.37;43.41;94389.09;4163334;28;20049;-68
2022/09/26 08:26:14;;;;;;;11.50;5.93;;;;;;;19.56;43.10;94382.75;4165304;28;20196;-68
2022/09/26 08:28:17;;;;;;;9.55;5.72;;;;;;;19.36;43.54;94375.03;4172925;28;20073;-65
2022/09/26 08:30:18;;;;;;;9.20;5.35;;;;;;;18.96;44.32;94370.09;4164495;28;20165;-68
2022/09/26 08:32:20;;;;;;;10.75;5.57;;;;;;;19.19;44.25;94389.91;4169853;28;20082;-66
2022/09/26 08:34:22;;;;;;;11.50;5.55;;;;;;;19.28;43.58;94388.59;4173047;28;20141;-67
2022/09/26 08:36:26;;;;;;;11.50;6.28;;;;;;;19.16;43.91;94385.03;4169959;28;20057;-66
2022/09/26 08:38:28;;;;;;;11.82;5.32;;;;;;;19.24;43.62;94395.38;4173746;28;20057;-64
2022/09/26 08:40:43;;;;;;;9.48;5.65;;;;;;;19.45;43.86;94404.75;4173164;28;20505;-62
2022/09/26 08:43:03;;;;;;;14.70;5.38;;;;;;;19.79;43.65;94394.59;4170035;28;20045;-61
2022/09/26 08:47:48;;;;;;;9.68;5.68;;;;;;;20.33;42.37;94378.75;4177658;28;20552;-69
2022/09/26 08:49:58;;;;;;;10.63;5.85;;;;;;;20.30;41.68;94366.69;4177475;28;20084;-69
2022/09/26 08:52:06;;;;;;;13.88;5.90;;;;;;;20.25;41.70;94372.69;4165966;28;20506;-68
2022/09/26 08:54:17;;;;;;;8.90;6.18;;;;;;;20.17;42.23;94372.19;4163306;28;20540;-69
2022/09/26 08:56:33;;;;;;;18.58;6.97;;;;;;;20.14;42.20;94370.00;4171255;28;20627;-70
2022/09/26 08:58:43;;;;;;;15.65;7.22;;;;;;;19.87;42.83;94373.00;4162799;28;20049;-67
2022/09/26 09:00:47;;;;;;;8.93;5.57;;;;;;;19.86;43.08;94379.38;4164047;28;20045;-65
2022/09/26 09:03:39;;;;;;;11.02;6.13;;;;;;;20.01;43.00;94379.78;4175993;28;20587;-67
2022/09/26 09:05:48;;;;;;;12.20;6.35;;;;;;;20.13;43.04;94371.81;4165168;28;20535;-70
2022/09/26 09:07:53;;;;;;;11.52;6.53;;;;;;;20.40;42.58;94369.59;4176362;28;20136;-66
2022/09/26 09:10:00;;;;;;;12.07;5.80;;;;;;;20.69;42.19;94369.00;4171875;28;20049;-62
2022/09/26 09:12:11;;;;;;;10.15;6.32;;;;;;;20.96;41.34;94362.19;4171890;28;20052;-62
2022/09/26 09:14:37;;;;;;;11.80;6.25;;;;;;;21.26;41.14;94362.03;4176987;28;20477;-64
2022/09/26 09:17:12;;;;;;;12.02;5.82;;;;;;;21.55;41.11;94350.66;4163347;28;20131;-62
2022/09/26 09:19:41;;;;;;;8.10;4.05;;;;;;;21.22;40.27;94350.22;4178137;28;20048;-61
2022/09/26 09:22:04;;;;;;;10.50;4.93;;;;;;;21.50;39.94;94339.91;4171009;28;20057;-61
2022/09/26 09:24:18;;;;;;;14.60;5.72;;;;;;;21.75;39.99;94344.94;4170870;28;20083;-60
2022/09/26 09:26:46;;;;;;;15.27;5.60;;;;;;;21.71;39.92;94344.59;4161682;28;20142;-61
2022/09/26 09:29:45;;;;;;;13.70;6.18;;;;;;;21.77;39.97;94341.00;4173618;28;20285;-59
2022/09/26 09:31:51;;;;;;;16.42;7.43;;;;;;;21.95;40.17;94344.53;4163855;28;20047;-61
2022/09/26 09:33:57;;;;;;;14.97;7.47;;;;;;;22.15;39.93;94336.88;4174600;28;20135;-59
2022/09/26 09:36:05;;;;;;;13.73;6.63;;;;;;;22.40;39.46;94328.53;4172034;28;20045;-61
2022/09/26 09:38:13;;;;;;;10.95;5.63;;;;;;;22.47;39.42;94337.19;4170716;28;20048;-61
2022/09/26 09:40:39;;;;;;;11.13;5.35;;;;;;;22.41;39.70;94332.84;4170419;28;20386;-61
2022/09/26 09:42:48;;;;;;;9.20;4.65;;;;;;;22.54;39.14;94322.88;4170895;28;20484;-61
2022/09/26 09:44:58;;;;;;;9.85;5.03;;;;;;;22.68;39.14;94316.19;4160185;28;20420;-61
2022/09/26 09:47:00;;;;;;;11.13;4.10;;;;;;;22.79;38.52;94325.94;4171086;28;20132;-60
2022/09/26 09:49:08;;;;;;;7.50;4.45;;;;;;;22.76;38.07;94323.78;4175656;28;20541;-59
2022/09/26 09:51:35;;;;;;;9.40;4.47;;;;;;;22.69;38.59;94320.44;4171794;28;20143;-60
2022/09/26 09:54:17;;;;;;;12.38;4.93;;;;;;;22.88;38.65;94315.66;4161282;28;20053;-63
2022/09/26 09:56:30;;;;;;;8.40;3.80;;;;;;;23.03;37.80;94309.75;4167871;28;20059;-63
2022/09/26 09:59:13;;;;;;;9.27;4.10;;;;;;;22.88;37.98;94308.44;4166174;28;20056;-61
2022/09/26 10:01:24;;;;;;;14.00;4.00;;;;;;;22.94;38.00;94298.66;4168408;28;20129;-61
2022/09/26 10:03:41;;;;;;;14.75;6.22;;;;;;;22.80;38.00;94294.72;4177059;28;20140;-64